createdAt,value
2017-04-21T00:00:26.573Z,66.30
2017-04-21T00:01:26.245Z,65.90
2017-04-21T00:02:26.612Z,66.50
2017-04-21T00:03:26.252Z,66.50
2017-04-21T00:04:26.670Z,66.60
2017-04-21T00:05:26.316Z,66.70
2017-04-21T00:06:26.068Z,66.70
2017-04-21T00:07:26.447Z,66.30
2017-04-21T00:08:26.900Z,66.60
2017-04-21T00:09:26.654Z,66.40
2017-04-21T00:10:26.397Z,66.50
2017-04-21T00:11:26.179Z,65.60
2017-04-21T00:12:25.852Z,65.70
2017-04-21T00:13:25.543Z,65.30
2017-04-21T00:14:25.175Z,65.60
2017-04-21T00:15:24.822Z,65.40
2017-04-21T00:16:24.451Z,65.60
2017-04-21T00:17:24.863Z,66.00
2017-04-21T00:18:24.710Z,66.20
2017-04-21T00:19:24.330Z,66.30
2017-04-21T00:20:23.967Z,66.60
2017-04-21T00:21:23.692Z,66.20
2017-04-21T00:22:24.133Z,66.30
2017-04-21T00:23:23.798Z,66.40
2017-04-21T00:24:23.413Z,66.60
2017-04-21T00:25:23.035Z,66.70
2017-04-21T00:26:22.652Z,66.50
2017-04-21T00:27:22.280Z,66.90
2017-04-21T00:28:21.893Z,67.30
2017-04-21T00:29:21.545Z,67.50
2017-04-21T00:30:21.217Z,67.90
2017-04-21T00:31:20.831Z,68.40
2017-04-21T00:32:20.463Z,68.90
2017-04-21T00:33:20.176Z,69.40
2017-04-21T00:34:20.644Z,69.90
2017-04-21T00:35:20.391Z,70.20
2017-04-21T00:36:20.025Z,70.90
2017-04-21T00:37:19.649Z,71.50
2017-04-21T00:38:19.277Z,71.90
2017-04-21T00:39:18.903Z,72.30
2017-04-21T00:40:18.551Z,72.10
2017-04-21T00:41:18.291Z,72.40
2017-04-21T00:42:18.013Z,73.40
2017-04-21T00:43:17.644Z,73.30
2017-04-21T00:44:17.316Z,73.70
2017-04-21T00:45:16.948Z,74.20
2017-04-21T00:46:16.561Z,74.50
2017-04-21T00:47:16.240Z,75.10
2017-04-21T00:48:15.852Z,74.50
2017-04-21T00:49:15.493Z,74.20
2017-04-21T00:50:15.109Z,74.60
2017-04-21T00:51:14.752Z,74.10
2017-04-21T00:52:14.435Z,73.50
2017-04-21T00:53:15.622Z,73.30
2017-04-21T00:54:15.244Z,72.90
2017-04-21T00:55:14.889Z,73.40
2017-04-21T00:56:14.526Z,73.50
2017-04-21T00:57:14.160Z,73.70
2017-04-21T00:58:14.654Z,73.70
2017-04-21T00:59:14.321Z,73.80
2017-04-21T01:00:13.937Z,74.30
2017-04-21T01:01:13.594Z,74.30
2017-04-21T01:02:13.232Z,74.40
2017-04-21T01:03:12.848Z,75.80
2017-04-21T01:04:12.565Z,76.70
2017-04-21T01:05:12.393Z,76.70
2017-04-21T01:06:12.817Z,77.10
2017-04-21T01:07:12.425Z,77.10
2017-04-21T01:08:12.047Z,77.90
2017-04-21T01:09:11.740Z,78.20
2017-04-21T01:10:11.366Z,78.20
2017-04-21T01:11:11.023Z,78.70
2017-04-21T01:12:10.693Z,79.30
2017-04-21T01:13:10.442Z,80.50
2017-04-21T01:14:10.160Z,81.00
2017-04-21T01:15:09.833Z,81.80
2017-04-21T01:16:09.460Z,82.80
2017-04-21T01:17:09.131Z,84.30
2017-04-21T01:18:08.757Z,85.50
2017-04-21T01:19:08.394Z,87.30
2017-04-21T01:20:08.181Z,88.90
2017-04-21T01:21:07.831Z,90.70
2017-04-21T01:22:07.543Z,91.10
2017-04-21T01:23:07.244Z,91.70
2017-04-21T01:24:07.076Z,91.90
2017-04-21T01:25:06.757Z,92.20
2017-04-21T01:26:06.397Z,92.20
2017-04-21T01:27:06.772Z,92.30
2017-04-21T01:28:06.386Z,92.70
2017-04-21T01:29:06.032Z,92.90
2017-04-21T01:30:05.744Z,92.60
2017-04-21T01:31:05.398Z,92.70
2017-04-21T01:32:05.018Z,92.80
2017-04-21T01:33:04.654Z,92.90
2017-04-21T01:34:04.435Z,93.10
2017-04-21T01:35:04.948Z,93.60
2017-04-21T01:36:04.572Z,94.50
2017-04-21T01:37:04.247Z,95.20
2017-04-21T01:38:04.617Z,95.80
2017-04-21T01:39:04.592Z,96.60
2017-04-21T01:40:04.209Z,96.30
2017-04-21T01:41:03.872Z,96.40
2017-04-21T01:42:03.517Z,97.00
2017-04-21T01:43:03.154Z,97.10
2017-04-21T01:44:03.537Z,97.60
2017-04-21T01:45:03.172Z,98.40
2017-04-21T01:46:02.808Z,99.10
2017-04-21T01:47:02.760Z,99.90
2017-04-21T01:48:02.464Z,99.90
2017-04-21T01:49:02.834Z,99.90
2017-04-21T01:50:02.445Z,99.90
2017-04-21T01:51:02.174Z,99.90
2017-04-21T01:52:02.571Z,99.90
2017-04-21T01:53:02.288Z,99.90
2017-04-21T01:54:01.909Z,99.90
2017-04-21T01:55:01.535Z,99.90
2017-04-21T01:56:01.183Z,99.90
2017-04-21T01:57:00.836Z,99.90
2017-04-21T01:58:00.484Z,99.90
2017-04-21T01:59:00.107Z,99.90
2017-04-21T01:59:59.808Z,99.90
2017-04-21T02:00:59.452Z,99.90
2017-04-21T02:01:59.069Z,99.90
2017-04-21T02:02:58.708Z,99.90
2017-04-21T02:03:58.414Z,99.90
2017-04-21T02:04:58.825Z,99.90
2017-04-21T02:05:58.488Z,99.90
2017-04-21T02:06:58.158Z,99.90
2017-04-21T02:07:57.825Z,99.90
2017-04-21T02:08:57.464Z,99.90
2017-04-21T02:09:57.129Z,99.90
2017-04-21T02:10:56.741Z,99.90
2017-04-21T02:11:56.429Z,99.90
2017-04-21T02:12:56.150Z,99.90
2017-04-21T02:13:55.852Z,99.90
2017-04-21T02:14:55.495Z,99.90
2017-04-21T02:15:55.247Z,99.90
2017-04-21T02:16:54.870Z,99.90
2017-04-21T02:17:54.547Z,99.90
2017-04-21T02:18:54.183Z,99.90
2017-04-21T02:19:53.804Z,99.90
2017-04-21T02:20:53.534Z,99.90
2017-04-21T02:21:53.191Z,99.90
2017-04-21T02:22:52.884Z,99.90
2017-04-21T02:23:52.501Z,99.90
2017-04-21T02:24:52.151Z,99.90
2017-04-21T02:25:51.922Z,99.90
2017-04-21T02:26:51.536Z,99.90
2017-04-21T02:27:51.220Z,99.90
2017-04-21T02:28:50.916Z,99.90
2017-04-21T02:29:50.557Z,99.90
2017-04-21T02:30:50.163Z,99.90
2017-04-21T02:31:49.895Z,99.90
2017-04-21T02:32:49.520Z,99.90
2017-04-21T02:33:49.190Z,99.90
2017-04-21T02:34:48.900Z,99.90
2017-04-21T02:35:48.524Z,99.90
2017-04-21T02:36:48.175Z,99.90
2017-04-21T02:37:47.848Z,99.90
2017-04-21T02:38:47.468Z,99.90
2017-04-21T02:39:47.132Z,99.90
2017-04-21T02:40:46.746Z,99.90
2017-04-21T02:41:46.482Z,99.90
2017-04-21T02:42:46.152Z,99.90
2017-04-21T02:43:45.770Z,99.90
2017-04-21T02:44:45.397Z,99.90
2017-04-21T02:45:45.073Z,99.90
2017-04-21T02:46:44.769Z,99.90
2017-04-21T02:47:44.406Z,99.90
2017-04-21T02:48:44.023Z,99.90
2017-04-21T02:49:43.678Z,99.90
2017-04-21T02:50:43.309Z,99.90
2017-04-21T02:51:43.056Z,99.90
2017-04-21T02:52:42.720Z,99.90
2017-04-21T02:53:42.336Z,99.90
2017-04-21T02:54:41.981Z,99.90
2017-04-21T02:55:41.676Z,99.90
2017-04-21T02:56:41.300Z,99.90
2017-04-21T02:57:41.041Z,99.90
2017-04-21T02:58:40.681Z,99.90
2017-04-21T02:59:40.309Z,99.90
2017-04-21T03:00:39.959Z,99.90
2017-04-21T03:01:39.607Z,99.90
2017-04-21T03:02:39.238Z,99.90
2017-04-21T03:03:38.916Z,99.90
2017-04-21T03:04:38.597Z,99.90
2017-04-21T03:05:38.218Z,99.90
2017-04-21T03:06:38.603Z,99.90
2017-04-21T03:07:38.229Z,99.90
2017-04-21T03:08:37.927Z,99.90
2017-04-21T03:09:37.628Z,99.90
2017-04-21T03:10:37.260Z,99.90
2017-04-21T03:11:36.876Z,99.90
2017-04-21T03:12:36.513Z,99.90
2017-04-21T03:13:36.212Z,99.90
2017-04-21T03:14:36.653Z,99.90
2017-04-21T03:15:36.334Z,99.90
2017-04-21T03:16:35.996Z,99.90
2017-04-21T03:17:35.624Z,99.90
2017-04-21T03:18:35.252Z,99.90
2017-04-21T03:19:34.888Z,99.90
2017-04-21T03:20:34.516Z,99.90
2017-04-21T03:21:34.179Z,99.90
2017-04-21T03:22:33.907Z,99.90
2017-04-21T03:23:33.527Z,99.90
2017-04-21T03:24:33.149Z,99.90
2017-04-21T03:25:32.777Z,99.90
2017-04-21T03:26:32.422Z,99.90
2017-04-21T03:27:32.369Z,99.90
2017-04-21T03:29:32.072Z,99.90
2017-04-21T03:30:31.727Z,99.90
2017-04-21T03:31:31.347Z,99.90
2017-04-21T03:32:31.026Z,99.90
2017-04-21T03:33:30.753Z,99.90
2017-04-21T03:34:30.377Z,99.90
2017-04-21T03:35:30.088Z,99.90
2017-04-21T03:36:30.488Z,99.90
2017-04-21T03:37:30.171Z,99.90
2017-04-21T03:38:29.901Z,99.90
2017-04-21T03:39:29.629Z,99.90
2017-04-21T03:40:29.289Z,99.90
2017-04-21T03:41:28.939Z,99.90
2017-04-21T03:42:28.604Z,99.90
2017-04-21T03:43:28.268Z,99.90
2017-04-21T03:44:27.884Z,99.90
2017-04-21T03:45:27.552Z,99.90
2017-04-21T03:46:27.181Z,99.90
2017-04-21T03:47:26.820Z,99.90
2017-04-21T03:48:26.475Z,99.90
2017-04-21T03:49:26.100Z,99.90
2017-04-21T03:50:25.739Z,99.90
2017-04-21T03:51:25.466Z,99.90
2017-04-21T03:52:25.120Z,99.90
2017-04-21T03:53:24.744Z,99.90
2017-04-21T03:54:24.460Z,99.90
2017-04-21T03:55:24.082Z,99.90
2017-04-21T03:56:23.775Z,99.90
2017-04-21T03:57:23.428Z,99.90
2017-04-21T03:58:23.083Z,99.90
2017-04-21T03:59:22.750Z,99.90
2017-04-21T04:00:22.396Z,99.90
2017-04-21T04:01:22.023Z,99.90
2017-04-21T04:02:21.659Z,99.90
2017-04-21T04:03:21.341Z,99.90
2017-04-21T04:04:20.990Z,99.90
2017-04-21T04:05:20.616Z,99.90
2017-04-21T04:06:20.275Z,99.90
2017-04-21T04:07:19.877Z,99.90
2017-04-21T04:08:19.501Z,99.90
2017-04-21T04:09:19.180Z,99.90
2017-04-21T04:10:18.914Z,99.90
2017-04-21T04:11:18.542Z,99.90
2017-04-21T04:12:18.204Z,99.90
2017-04-21T04:13:17.821Z,99.90
2017-04-21T04:14:17.470Z,99.90
2017-04-21T04:15:17.280Z,99.90
2017-04-21T04:16:17.003Z,99.90
2017-04-21T04:17:16.698Z,99.90
2017-04-21T04:18:16.331Z,99.90
2017-04-21T04:19:15.945Z,99.90
2017-04-21T04:20:15.567Z,99.90
2017-04-21T04:21:15.238Z,99.90
2017-04-21T04:22:14.855Z,99.90
2017-04-21T04:23:14.478Z,99.90
2017-04-21T04:24:14.181Z,99.90
2017-04-21T04:25:13.825Z,99.90
2017-04-21T04:26:13.444Z,99.90
2017-04-21T04:27:13.110Z,99.90
2017-04-21T04:28:12.743Z,99.90
2017-04-21T04:29:12.361Z,99.90
2017-04-21T04:30:12.785Z,99.90
2017-04-21T04:31:12.437Z,99.90
2017-04-21T04:32:12.058Z,99.70
2017-04-21T04:33:11.732Z,98.50
2017-04-21T04:34:11.357Z,97.80
2017-04-21T04:35:10.987Z,96.40
2017-04-21T04:36:10.634Z,95.00
2017-04-21T04:37:10.254Z,93.80
2017-04-21T04:38:09.988Z,92.10
2017-04-21T04:39:09.703Z,91.30
2017-04-21T04:40:09.331Z,90.70
2017-04-21T04:41:08.945Z,90.50
2017-04-21T04:42:08.578Z,90.50
2017-04-21T04:43:08.227Z,90.30
2017-04-21T04:44:07.852Z,90.40
2017-04-21T04:45:08.357Z,90.40
2017-04-21T04:46:08.092Z,90.50
2017-04-21T04:47:07.732Z,90.50
2017-04-21T04:48:07.364Z,90.40
2017-04-21T04:49:06.993Z,90.70
2017-04-21T04:50:06.624Z,90.40
2017-04-21T04:51:06.288Z,90.10
2017-04-21T04:52:05.983Z,90.10
2017-04-21T04:53:05.723Z,87.80
2017-04-21T04:54:05.367Z,84.10
2017-04-21T04:55:04.996Z,81.30
2017-04-21T04:56:04.621Z,78.10
2017-04-21T04:57:04.313Z,73.10
2017-04-21T04:58:04.027Z,68.50
2017-04-21T04:59:04.409Z,63.20
2017-04-21T05:00:04.117Z,59.40
2017-04-21T05:01:03.750Z,57.40
2017-04-21T05:02:03.434Z,56.20
2017-04-21T05:03:03.168Z,53.80
2017-04-21T05:04:02.805Z,51.70
2017-04-21T05:05:02.449Z,50.90
2017-04-21T05:06:02.077Z,49.00
2017-04-21T05:07:01.705Z,48.20
2017-04-21T05:08:01.364Z,47.80
2017-04-21T05:09:01.064Z,45.90
2017-04-21T05:10:00.815Z,44.10
2017-04-21T05:11:00.446Z,43.60
2017-04-21T05:12:00.087Z,42.50
2017-04-21T05:12:59.761Z,42.20
2017-04-21T05:13:59.432Z,40.90
2017-04-21T05:14:59.153Z,41.10
2017-04-21T05:15:58.904Z,39.60
2017-04-21T05:16:58.543Z,39.30
2017-04-21T05:17:58.262Z,38.40
2017-04-21T05:18:58.716Z,38.10
2017-04-21T05:19:58.355Z,36.50
2017-04-21T05:20:58.048Z,35.50
2017-04-21T05:21:57.811Z,34.90
2017-04-21T05:22:58.184Z,34.00
2017-04-21T05:23:57.862Z,33.30
2017-04-21T05:24:57.511Z,31.80
2017-04-21T05:25:57.192Z,31.30
2017-04-21T05:26:56.872Z,31.20
2017-04-21T05:27:56.535Z,30.90
2017-04-21T05:28:56.188Z,30.00
2017-04-21T05:29:55.918Z,29.60
2017-04-21T05:31:56.211Z,28.80
2017-04-21T05:32:55.925Z,28.10
2017-04-21T05:33:55.581Z,27.60
2017-04-21T05:34:55.210Z,27.70
2017-04-21T05:36:54.734Z,26.70
2017-04-21T05:37:54.387Z,26.90
2017-04-21T05:39:54.736Z,27.00
2017-04-21T05:40:54.433Z,26.70
2017-04-21T05:41:54.080Z,26.40
2017-04-21T05:43:53.608Z,26.20
2017-04-21T05:44:53.638Z,25.50
2017-04-21T05:45:53.288Z,25.10
2017-04-21T05:46:53.035Z,24.40
2017-04-21T05:47:53.437Z,24.50
2017-04-21T05:49:53.053Z,24.70
2017-04-21T05:50:52.708Z,23.70
2017-04-21T05:51:52.477Z,24.50
2017-04-21T05:52:52.124Z,24.90
2017-04-21T05:53:51.751Z,25.30
2017-04-21T05:54:51.395Z,26.00
2017-04-21T05:55:51.086Z,26.60
2017-04-21T05:56:50.730Z,27.30
2017-04-21T05:57:51.119Z,27.60
2017-04-21T05:58:50.848Z,29.00
2017-04-21T05:59:50.480Z,28.90
2017-04-21T06:00:50.141Z,29.40
2017-04-21T06:01:49.810Z,28.90
2017-04-21T06:02:49.536Z,28.20
2017-04-21T06:03:49.201Z,29.70
2017-04-21T06:04:48.933Z,29.30
2017-04-21T06:05:48.588Z,29.50
2017-04-21T06:06:48.198Z,29.60
2017-04-21T06:07:47.997Z,29.90
2017-04-21T06:08:47.641Z,31.70
2017-04-21T06:09:47.289Z,30.70
2017-04-21T06:10:46.918Z,31.50
2017-04-21T06:11:46.569Z,31.30
2017-04-21T06:12:46.242Z,32.50
2017-04-21T06:13:45.981Z,32.70
2017-04-21T06:14:45.681Z,34.60
2017-04-21T06:15:45.410Z,36.40
2017-04-21T06:16:45.139Z,35.80
2017-04-21T06:17:44.821Z,36.20
2017-04-21T06:18:44.485Z,36.90
2017-04-21T06:19:44.160Z,37.10
2017-04-21T06:20:43.801Z,37.60
2017-04-21T06:21:44.186Z,37.90
2017-04-21T06:22:43.914Z,37.60
2017-04-21T06:23:43.536Z,39.20
2017-04-21T06:24:43.163Z,38.80
2017-04-21T06:25:42.794Z,39.60
2017-04-21T06:26:42.438Z,41.90
2017-04-21T06:27:42.068Z,40.90
2017-04-21T06:28:41.796Z,43.30
2017-04-21T06:29:42.184Z,41.90
2017-04-21T06:30:41.873Z,41.60
2017-04-21T06:31:41.577Z,43.10
2017-04-21T06:32:41.246Z,41.60
2017-04-21T06:33:40.941Z,42.40
2017-04-21T06:34:40.678Z,39.70
2017-04-21T06:35:40.460Z,41.70
2017-04-21T06:36:40.203Z,40.40
2017-04-21T06:37:40.658Z,40.60
2017-04-21T06:38:40.372Z,42.00
2017-04-21T06:39:40.118Z,42.50
2017-04-21T06:40:39.792Z,42.30
2017-04-21T06:41:39.427Z,42.60
2017-04-21T06:42:39.076Z,42.80
2017-04-21T06:43:38.752Z,42.90
2017-04-21T06:44:38.416Z,42.20
2017-04-21T06:45:38.053Z,44.10
2017-04-21T06:46:37.687Z,43.40
2017-04-21T06:47:37.348Z,42.30
2017-04-21T06:48:36.995Z,42.50
2017-04-21T06:49:37.405Z,43.10
2017-04-21T06:50:37.841Z,43.70
2017-04-21T06:51:37.467Z,44.70
2017-04-21T06:52:37.092Z,43.40
2017-04-21T06:53:36.813Z,43.30
2017-04-21T06:54:36.461Z,44.00
2017-04-21T06:55:36.211Z,44.00
2017-04-21T06:56:36.577Z,43.70
2017-04-21T06:57:36.207Z,44.20
2017-04-21T06:58:35.845Z,44.90
2017-04-21T06:59:35.473Z,44.70
2017-04-21T07:00:35.116Z,44.30
2017-04-21T07:01:34.841Z,44.70
2017-04-21T07:02:43.297Z,44.50
2017-04-21T07:03:42.989Z,45.20
2017-04-21T07:04:42.637Z,45.10
2017-04-21T07:05:42.620Z,44.80
2017-04-21T07:06:42.428Z,44.50
2017-04-21T07:07:42.089Z,44.90
2017-04-21T07:08:41.781Z,45.70
2017-04-21T07:09:41.462Z,44.20
2017-04-21T07:10:41.089Z,43.90
2017-04-21T07:11:40.728Z,44.10
2017-04-21T07:12:40.396Z,44.20
2017-04-21T07:13:40.100Z,43.50
2017-04-21T07:14:39.744Z,43.50
2017-04-21T07:15:39.376Z,42.20
2017-04-21T07:16:39.090Z,41.20
2017-04-21T07:17:38.832Z,41.00
2017-04-21T07:18:38.602Z,40.50
2017-04-21T07:19:38.233Z,41.90
2017-04-21T07:20:37.881Z,41.20
2017-04-21T07:21:37.521Z,41.10
2017-04-21T07:22:37.177Z,41.10
2017-04-21T07:23:36.856Z,40.70
2017-04-21T07:24:36.544Z,40.40
2017-04-21T07:25:36.273Z,40.30
2017-04-21T07:26:36.644Z,41.20
2017-04-21T07:27:36.296Z,42.90
2017-04-21T07:28:35.938Z,43.70
2017-04-21T07:29:35.681Z,41.10
2017-04-21T07:30:35.346Z,42.10
2017-04-21T07:31:34.938Z,41.30
2017-04-21T07:32:34.588Z,42.10
2017-04-21T07:33:34.227Z,42.80
2017-04-21T07:34:33.864Z,42.20
2017-04-21T07:36:33.315Z,41.60
2017-04-21T07:37:32.957Z,42.00
2017-04-21T07:38:33.345Z,41.10
2017-04-21T07:39:33.075Z,42.60
2017-04-21T07:40:32.733Z,41.90
2017-04-21T07:41:32.352Z,42.60
2017-04-21T07:42:32.364Z,41.90
2017-04-21T07:43:32.075Z,41.60
2017-04-21T07:44:31.770Z,42.50
2017-04-21T07:45:32.141Z,41.60
2017-04-21T07:46:32.602Z,41.20
2017-04-21T07:47:32.292Z,40.60
2017-04-21T07:48:32.669Z,41.00
2017-04-21T07:49:32.316Z,40.40
2017-04-21T07:50:31.965Z,40.60
2017-04-21T07:51:31.706Z,40.60
2017-04-21T07:52:32.099Z,40.00
2017-04-21T07:53:31.775Z,41.10
2017-04-21T07:54:31.395Z,41.40
2017-04-21T07:55:31.115Z,40.80
2017-04-21T07:56:30.776Z,40.20
2017-04-21T07:57:30.417Z,40.80
2017-04-21T07:58:30.106Z,40.60
2017-04-21T07:59:29.817Z,40.20
2017-04-21T08:00:29.472Z,40.70
2017-04-21T08:01:29.160Z,39.40
2017-04-21T08:02:28.811Z,38.40
2017-04-21T08:03:28.453Z,38.40
2017-04-21T08:04:28.095Z,38.60
2017-04-21T08:05:27.880Z,38.50
2017-04-21T08:06:27.918Z,37.70
2017-04-21T08:07:27.543Z,38.00
2017-04-21T08:08:27.200Z,38.20
2017-04-21T08:09:26.841Z,37.30
2017-04-21T08:10:26.477Z,37.30
2017-04-21T08:11:26.159Z,36.30
2017-04-21T08:12:25.816Z,36.60
2017-04-21T08:13:25.460Z,37.10
2017-04-21T08:14:25.177Z,36.20
2017-04-21T08:15:24.832Z,36.10
2017-04-21T08:16:24.470Z,36.40
2017-04-21T08:17:24.150Z,36.10
2017-04-21T08:18:23.998Z,35.90
2017-04-21T08:19:23.632Z,35.60
2017-04-21T08:20:23.368Z,35.20
2017-04-21T08:21:23.023Z,35.40
2017-04-21T08:22:22.765Z,36.20
2017-04-21T08:23:22.479Z,35.00
2017-04-21T08:24:22.119Z,35.60
2017-04-21T08:25:21.757Z,35.70
2017-04-21T08:26:21.404Z,34.80
2017-04-21T08:27:21.058Z,34.40
2017-04-21T08:28:20.697Z,33.90
2017-04-21T08:29:20.380Z,33.70
2017-04-21T08:30:20.264Z,33.80
2017-04-21T08:31:19.912Z,34.10
2017-04-21T08:32:20.300Z,33.50
2017-04-21T08:33:19.937Z,33.30
2017-04-21T08:34:19.580Z,33.40
2017-04-21T08:35:19.269Z,32.60
2017-04-21T08:36:18.928Z,33.00
2017-04-21T08:37:18.586Z,32.30
2017-04-21T08:38:18.224Z,32.00
2017-04-21T08:39:17.945Z,31.90
2017-04-21T08:40:18.339Z,32.10
2017-04-21T08:41:18.088Z,32.30
2017-04-21T08:42:17.814Z,32.90
2017-04-21T08:43:17.484Z,34.50
2017-04-21T08:44:17.143Z,32.90
2017-04-21T08:45:16.779Z,33.60
2017-04-21T08:46:16.416Z,33.30
2017-04-21T08:47:16.100Z,33.70
2017-04-21T08:48:15.738Z,33.60
2017-04-21T08:49:15.378Z,33.70
2017-04-21T08:50:15.028Z,32.70
2017-04-21T08:51:14.696Z,32.80
2017-04-21T08:52:14.356Z,33.80
2017-04-21T08:53:14.046Z,32.80
2017-04-21T08:54:13.696Z,32.70
2017-04-21T08:55:13.431Z,32.50
2017-04-21T08:56:13.119Z,32.50
2017-04-21T08:57:12.760Z,33.00
2017-04-21T08:58:12.417Z,33.20
2017-04-21T08:59:12.108Z,32.70
2017-04-21T09:00:12.731Z,32.20
2017-04-21T09:01:13.215Z,31.70
2017-04-21T09:02:12.864Z,31.20
2017-04-21T09:03:12.485Z,30.90
2017-04-21T09:04:12.192Z,30.70
2017-04-21T09:05:11.943Z,30.70
2017-04-21T09:06:12.327Z,30.80
2017-04-21T09:07:11.980Z,30.00
2017-04-21T09:08:12.012Z,30.50
2017-04-21T09:09:11.653Z,30.40
2017-04-21T09:10:12.083Z,31.80
2017-04-21T09:11:11.770Z,30.60
2017-04-21T09:12:11.412Z,31.80
2017-04-21T09:13:11.062Z,31.80
2017-04-21T09:14:10.701Z,32.70
2017-04-21T09:15:10.361Z,31.80
2017-04-21T09:16:10.053Z,32.50
2017-04-21T09:17:10.554Z,32.20
2017-04-21T09:18:10.208Z,31.30
2017-04-21T09:19:09.925Z,32.10
2017-04-21T09:20:10.333Z,32.60
2017-04-21T09:21:10.017Z,31.70
2017-04-21T09:22:09.707Z,30.90
2017-04-21T09:23:09.329Z,30.90
2017-04-21T09:24:09.016Z,31.10
2017-04-21T09:25:08.753Z,30.60
2017-04-21T09:26:08.370Z,31.40
2017-04-21T09:27:08.138Z,32.90
2017-04-21T09:28:07.871Z,30.50
2017-04-21T09:29:08.261Z,30.60
2017-04-21T09:30:07.936Z,30.70
2017-04-21T09:31:07.574Z,30.60
2017-04-21T09:32:07.359Z,30.70
2017-04-21T09:33:07.239Z,31.00
2017-04-21T09:34:06.970Z,31.40
2017-04-21T09:35:06.664Z,30.40
2017-04-21T09:36:06.328Z,30.30
2017-04-21T09:37:06.078Z,30.40
2017-04-21T09:38:05.737Z,29.90
2017-04-21T09:39:06.186Z,30.60
2017-04-21T09:40:05.872Z,30.50
2017-04-21T09:41:05.518Z,31.30
2017-04-21T09:42:56.187Z,31.20
2017-04-21T09:43:59.396Z,31.80
2017-04-21T09:44:04.786Z,29.90
2017-04-21T09:45:04.486Z,29.90
2017-04-21T09:46:04.183Z,29.70
2017-04-21T09:47:03.839Z,29.50
2017-04-21T09:48:04.220Z,30.30
2017-04-21T09:49:03.849Z,30.20
2017-04-21T09:50:03.537Z,31.70
2017-04-21T09:51:03.243Z,31.00
2017-04-21T09:53:46.297Z,29.80
2017-04-21T09:54:14.143Z,31.20
2017-04-21T09:56:05.052Z,30.50
2017-04-21T09:57:06.052Z,32.00
2017-04-21T09:57:26.100Z,30.70
2017-04-21T09:59:56.065Z,30.80
2017-04-21T10:00:49.438Z,30.70
2017-04-21T10:04:02.572Z,30.10
2017-04-21T10:04:21.654Z,32.30
2017-04-21T10:06:18.536Z,30.00
2017-04-21T10:06:20.357Z,32.30
2017-04-21T10:06:34.017Z,31.20
2017-04-21T10:06:55.134Z,30.80
2017-04-21T10:07:59.736Z,29.80
2017-04-21T10:08:06.465Z,30.10
2017-04-21T10:08:06.466Z,30.30
2017-04-21T10:08:22.021Z,31.00
2017-04-21T10:08:59.843Z,29.50
2017-04-21T10:09:59.535Z,29.70
2017-04-21T10:10:59.149Z,29.00
2017-04-21T10:11:58.785Z,29.40
2017-04-21T10:12:58.494Z,28.90
2017-04-21T10:13:58.182Z,28.90
2017-04-21T10:14:58.021Z,29.00
2017-04-21T10:15:57.652Z,29.30
2017-04-21T10:16:57.456Z,30.00
2017-04-21T10:17:57.126Z,29.40
2017-04-21T10:18:56.796Z,31.10
2017-04-21T10:19:56.570Z,29.60
2017-04-21T10:20:56.364Z,29.70
2017-04-21T10:21:56.077Z,29.50
2017-04-21T10:22:55.755Z,30.30
2017-04-21T10:23:55.432Z,29.90
2017-04-21T10:24:55.108Z,29.70
2017-04-21T10:25:54.849Z,29.40
2017-04-21T10:26:54.744Z,30.80
2017-04-21T10:27:54.411Z,31.30
2017-04-21T10:28:54.074Z,31.60
2017-04-21T10:29:53.822Z,30.90
2017-04-21T10:30:53.461Z,32.10
2017-04-21T10:31:53.295Z,30.90
2017-04-21T10:32:53.233Z,31.90
2017-04-21T10:33:52.979Z,31.80
2017-04-21T10:34:52.657Z,33.20
2017-04-21T10:35:52.360Z,32.40
2017-04-21T10:36:52.012Z,33.40
2017-04-21T10:37:51.768Z,31.70
2017-04-21T10:38:51.432Z,32.50
2017-04-21T10:39:51.079Z,32.20
2017-04-21T10:40:50.861Z,31.60
2017-04-21T10:41:51.291Z,32.20
2017-04-21T10:42:50.940Z,32.70
2017-04-21T10:43:50.696Z,32.00
2017-04-21T10:44:50.375Z,32.20
2017-04-21T10:45:50.014Z,32.70
2017-04-21T10:46:49.696Z,34.20
2017-04-21T10:47:49.340Z,32.40
2017-04-21T10:48:48.997Z,33.50
2017-04-21T10:49:48.700Z,32.90
2017-04-21T10:50:48.460Z,33.60
2017-04-21T10:51:48.956Z,33.80
2017-04-21T10:52:48.652Z,34.80
2017-04-21T10:53:48.461Z,34.20
2017-04-21T10:54:48.105Z,33.50
2017-04-21T10:55:47.827Z,33.80
2017-04-21T10:56:48.233Z,32.70
2017-04-21T10:57:47.873Z,33.50
2017-04-21T10:58:47.549Z,31.90
2017-04-21T10:59:47.283Z,31.90
2017-04-21T11:00:46.979Z,32.20
2017-04-21T11:01:46.728Z,32.50
2017-04-21T11:02:46.390Z,32.60
2017-04-21T11:03:46.047Z,32.30
2017-04-21T11:04:45.776Z,32.20
2017-04-21T11:05:46.161Z,33.60
2017-04-21T11:06:45.802Z,32.00
2017-04-21T11:07:45.472Z,32.80
2017-04-21T11:08:45.132Z,32.70
2017-04-21T11:09:44.962Z,32.90
2017-04-21T11:10:44.750Z,32.40
2017-04-21T11:11:44.404Z,32.70
2017-04-21T11:12:44.048Z,31.90
2017-04-21T11:13:43.756Z,33.10
2017-04-21T11:14:43.484Z,32.70
2017-04-21T11:15:43.118Z,34.10
2017-04-21T11:16:42.748Z,34.20
2017-04-21T11:17:42.430Z,34.70
2017-04-21T11:18:42.167Z,33.90
2017-04-21T11:19:41.864Z,34.20
2017-04-21T11:20:42.377Z,34.60
2017-04-21T11:21:42.078Z,34.60
2017-04-21T11:22:42.459Z,33.50
2017-04-21T11:23:42.101Z,33.60
2017-04-21T11:24:41.826Z,33.50
2017-04-21T11:25:41.436Z,33.80
2017-04-21T11:26:41.078Z,34.90
2017-04-21T11:27:40.740Z,34.20
2017-04-21T11:28:40.587Z,35.10
2017-04-21T11:29:40.978Z,35.80
2017-04-21T11:30:40.694Z,35.80
2017-04-21T11:31:40.331Z,34.80
2017-04-21T11:32:40.035Z,35.60
2017-04-21T11:33:39.669Z,35.00
2017-04-21T11:34:39.346Z,35.80
2017-04-21T11:35:38.995Z,36.10
2017-04-21T11:36:38.720Z,36.60
2017-04-21T11:37:38.366Z,36.30
2017-04-21T11:38:38.021Z,36.60
2017-04-21T11:39:37.649Z,35.90
2017-04-21T11:40:37.290Z,37.40
2017-04-21T11:41:36.953Z,37.00
2017-04-21T11:42:36.645Z,37.90
2017-04-21T11:43:36.299Z,37.50
2017-04-21T11:44:36.228Z,36.90
2017-04-21T11:45:35.910Z,37.60
2017-04-21T11:46:35.552Z,38.20
2017-04-21T11:47:35.260Z,38.10
2017-04-21T11:48:34.948Z,36.70
2017-04-21T11:49:34.760Z,38.00
2017-04-21T11:50:35.121Z,38.70
2017-04-21T11:51:34.784Z,38.20
2017-04-21T11:52:34.413Z,37.60
2017-04-21T11:53:34.843Z,37.50
2017-04-21T11:54:34.583Z,38.30
2017-04-21T11:55:34.231Z,38.80
2017-04-21T11:56:33.864Z,38.40
2017-04-21T11:57:33.540Z,38.50
2017-04-21T11:58:33.210Z,38.40
2017-04-21T11:59:33.348Z,38.00
2017-04-21T12:00:33.065Z,38.20
2017-04-21T12:01:32.887Z,38.10
2017-04-21T12:02:32.579Z,37.90
2017-04-21T12:03:32.236Z,37.80
2017-04-21T12:04:31.976Z,37.90
2017-04-21T12:05:31.704Z,39.40
2017-04-21T12:06:31.480Z,37.90
2017-04-21T12:07:31.195Z,38.40
2017-04-21T12:08:30.840Z,38.80
2017-04-21T12:09:30.571Z,39.00
2017-04-21T12:10:30.252Z,40.00
2017-04-21T12:11:29.924Z,40.40
2017-04-21T12:12:29.664Z,39.50
2017-04-21T12:13:29.316Z,39.80
2017-04-21T12:14:29.370Z,41.00
2017-04-21T12:15:29.191Z,41.10
2017-04-21T12:16:28.850Z,41.30
2017-04-21T12:17:28.552Z,41.10
2017-04-21T12:18:28.200Z,40.00
2017-04-21T12:19:27.893Z,39.80
2017-04-21T12:20:27.532Z,41.20
2017-04-21T12:21:27.507Z,41.50
2017-04-21T12:22:27.236Z,40.80
2017-04-21T12:23:26.926Z,40.90
2017-04-21T12:24:26.564Z,41.60
2017-04-21T12:25:26.208Z,41.30
2017-04-21T12:26:25.856Z,40.20
2017-04-21T12:27:25.517Z,39.80
2017-04-21T12:28:25.249Z,39.70
2017-04-21T12:29:24.948Z,40.30
2017-04-21T12:30:24.652Z,39.60
2017-04-21T12:31:24.290Z,39.60
2017-04-21T12:32:23.926Z,39.90
2017-04-21T12:33:23.555Z,40.40
2017-04-21T12:34:23.188Z,40.00
2017-04-21T12:35:22.990Z,39.20
2017-04-21T12:36:22.689Z,40.20
2017-04-21T12:37:22.340Z,39.80
2017-04-21T12:38:22.002Z,39.30
2017-04-21T12:39:21.726Z,38.00
2017-04-21T12:40:21.406Z,37.80
2017-04-21T12:41:21.140Z,37.10
2017-04-21T12:42:20.797Z,37.10
2017-04-21T12:43:20.468Z,37.10
2017-04-21T12:44:20.112Z,37.40
2017-04-21T12:45:19.779Z,37.60
2017-04-21T12:46:19.469Z,38.80
2017-04-21T12:47:19.454Z,38.70
2017-04-21T12:48:19.111Z,38.70
2017-04-21T12:49:18.929Z,38.90
2017-04-21T12:50:18.714Z,39.20
2017-04-21T12:51:19.134Z,39.00
2017-04-21T12:52:19.558Z,38.80
2017-04-21T12:53:19.204Z,38.80
2017-04-21T12:54:18.831Z,39.30
2017-04-21T12:55:18.470Z,38.60
2017-04-21T12:56:18.103Z,38.10